Time;durP1;ratioP1;P1;durP2;ratioP2;P2;SDS_P1;SDS_P2;PMS_P1;PMS_P2;Temp;Humidity;BMP_temperature;BMP_pressure;BME280_temperature;BME280_humidity;BME280_pressure;Samples;Min_cycle;Max_cycle;Signal;HPM_P1;HPM_P2
2023/08/18 00:01:22;;;;;;;1999.90;999.90;;;16.20;92.00;;;;;;5094080;28;20031;-71
2023/08/18 00:03:48;;;;;;;1999.90;999.90;;;16.30;91.90;;;;;;5093107;28;20036;-71
2023/08/18 00:06:14;;;;;;;1999.90;999.90;;;16.20;92.00;;;;;;5088731;28;20045;-71
2023/08/18 00:08:39;;;;;;;1999.90;999.90;;;16.10;91.80;;;;;;5086874;28;20032;-71
2023/08/18 00:11:05;;;;;;;1999.90;999.90;;;15.90;92.00;;;;;;5085253;28;20040;-71
2023/08/18 00:13:31;;;;;;;1999.90;999.90;;;15.80;92.40;;;;;;5091352;28;20043;-71
2023/08/18 00:15:57;;;;;;;1999.90;999.90;;;15.90;92.80;;;;;;5092803;28;20028;-71
2023/08/18 00:18:22;;;;;;;1999.90;999.90;;;15.80;92.70;;;;;;5092229;28;20537;-71
2023/08/18 00:20:50;;;;;;;1999.90;999.90;;;15.80;92.80;;;;;;5091913;28;20038;-71
2023/08/18 00:23:16;;;;;;;1999.90;999.90;;;15.90;92.90;;;;;;5089185;28;20166;-70
2023/08/18 00:25:41;;;;;;;1999.90;999.90;;;15.90;92.70;;;;;;5092085;28;20089;-71
2023/08/18 00:28:07;;;;;;;1999.90;999.90;;;15.70;93.00;;;;;;5091145;28;20100;-70
2023/08/18 00:30:33;;;;;;;1999.90;999.90;;;15.80;93.10;;;;;;5092397;28;20032;-71
2023/08/18 00:32:59;;;;;;;1999.90;999.90;;;15.70;93.10;;;;;;5092777;28;20812;-71
2023/08/18 00:35:26;;;;;;;1999.90;999.90;;;15.60;93.20;;;;;;5091313;28;20025;-71
2023/08/18 00:37:52;;;;;;;1999.90;999.90;;;15.70;93.20;;;;;;5074233;28;20060;-71
2023/08/18 00:40:17;;;;;;;1999.90;999.90;;;15.80;93.10;;;;;;5090661;28;20028;-71
2023/08/18 00:42:43;;;;;;;1999.90;999.90;;;15.80;92.90;;;;;;5089376;28;20035;-71
2023/08/18 00:45:09;;;;;;;1999.90;999.90;;;15.80;92.90;;;;;;5088233;28;20028;-71
2023/08/18 00:47:36;;;;;;;1999.90;999.90;;;15.70;92.90;;;;;;5071879;28;20426;-71
2023/08/18 00:50:04;;;;;;;1999.90;999.90;;;15.60;92.90;;;;;;5087379;28;20036;-71
2023/08/18 00:52:30;;;;;;;1999.90;999.90;;;15.60;92.90;;;;;;5088210;28;20091;-71
2023/08/18 00:54:56;;;;;;;1999.90;999.90;;;15.60;92.80;;;;;;5089332;28;20038;-71
2023/08/18 00:57:22;;;;;;;1999.90;999.90;;;15.50;92.70;;;;;;5087875;28;20119;-71
2023/08/18 00:59:49;;;;;;;1999.90;999.90;;;15.20;92.70;;;;;;5089815;28;20111;-71
2023/08/18 01:02:17;;;;;;;1999.90;999.90;;;15.20;93.40;;;;;;5088111;28;20027;-71
2023/08/18 01:04:43;;;;;;;1999.90;999.90;;;15.20;94.10;;;;;;5089312;28;20028;-71
2023/08/18 01:07:09;;;;;;;1999.90;999.90;;;15.30;94.10;;;;;;5085718;28;20028;-71
2023/08/18 01:09:35;;;;;;;1999.90;999.90;;;15.30;94.20;;;;;;5088402;28;20101;-71
2023/08/18 01:12:18;;;;;;;1999.90;999.90;;;15.30;94.10;;;;;;5088774;28;20427;-71
2023/08/18 01:14:50;;;;;;;1999.90;999.90;;;15.30;94.40;;;;;;5084843;28;20027;-71
2023/08/18 01:17:31;;;;;;;1999.90;999.90;;;15.20;94.40;;;;;;5082839;28;20561;-71
2023/08/18 01:19:57;;;;;;;1999.90;999.90;;;15.20;94.50;;;;;;5086840;28;20063;-71
2023/08/18 01:22:24;;;;;;;1999.90;999.90;;;15.20;94.60;;;;;;5085064;28;20043;-71
2023/08/18 01:24:50;;;;;;;1999.90;999.90;;;15.10;94.60;;;;;;5088155;28;20077;-70
2023/08/18 01:27:15;;;;;;;1999.90;999.90;;;15.10;94.80;;;;;;5086491;28;20068;-71
2023/08/18 01:29:41;;;;;;;1999.90;999.90;;;15.20;94.90;;;;;;5085667;28;20043;-71
2023/08/18 01:32:09;;;;;;;1999.90;999.90;;;15.20;94.80;;;;;;5087610;28;20047;-71
2023/08/18 01:34:40;;;;;;;1999.90;999.90;;;15.20;94.70;;;;;;5087709;28;20136;-71
2023/08/18 01:37:06;;;;;;;1999.90;999.90;;;15.20;94.40;;;;;;5088625;28;20074;-71
2023/08/18 01:39:33;;;;;;;1999.90;999.90;;;15.20;94.30;;;;;;5085886;28;20048;-71
2023/08/18 01:41:59;;;;;;;1999.90;999.90;;;15.10;94.20;;;;;;5085530;28;20031;-71
2023/08/18 01:44:24;;;;;;;1999.90;999.90;;;15.00;94.00;;;;;;5085161;28;20035;-71
2023/08/18 01:46:50;;;;;;;1999.90;999.90;;;14.80;94.10;;;;;;5084770;28;20028;-71
2023/08/18 01:49:16;;;;;;;1999.90;999.90;;;14.90;94.30;;;;;;5085820;28;20038;-71
2023/08/18 01:51:41;;;;;;;1999.90;999.90;;;14.90;94.20;;;;;;5086166;28;20035;-71
2023/08/18 01:54:08;;;;;;;1999.90;999.90;;;15.00;94.30;;;;;;5087027;28;20043;-71
2023/08/18 01:56:33;;;;;;;1999.90;999.90;;;15.10;94.10;;;;;;5086843;28;20032;-71
2023/08/18 01:58:59;;;;;;;1999.90;999.90;;;15.20;93.60;;;;;;5085073;28;20478;-71
2023/08/18 02:01:25;;;;;;;1999.90;999.90;;;15.10;93.60;;;;;;5087666;28;20028;-71
2023/08/18 02:03:52;;;;;;;1999.90;999.90;;;14.90;93.90;;;;;;5085448;28;20131;-71
2023/08/18 02:06:18;;;;;;;1999.90;999.90;;;14.80;94.00;;;;;;5086234;28;20054;-71
2023/08/18 02:08:44;;;;;;;1999.90;999.90;;;14.90;94.00;;;;;;5087483;28;20032;-71
2023/08/18 02:11:10;;;;;;;1999.90;999.90;;;14.90;94.10;;;;;;5085108;28;20032;-71
2023/08/18 02:13:35;;;;;;;1999.90;999.90;;;14.90;94.20;;;;;;5087527;28;20494;-70
2023/08/18 02:16:01;;;;;;;1999.90;999.90;;;14.90;94.30;;;;;;5087439;28;20034;-71
2023/08/18 02:18:27;;;;;;;1999.90;999.90;;;15.00;95.00;;;;;;5085510;28;20028;-71
2023/08/18 02:20:56;;;;;;;1999.90;999.90;;;15.10;94.70;;;;;;5082598;28;20146;-71
2023/08/18 02:23:22;;;;;;;1999.90;999.90;;;15.00;94.60;;;;;;5082880;28;20036;-71
2023/08/18 02:25:48;;;;;;;1999.90;999.90;;;14.90;94.60;;;;;;5083824;28;20475;-71
2023/08/18 02:28:15;;;;;;;1999.90;999.90;;;14.90;94.60;;;;;;5075331;28;20047;-71
2023/08/18 02:30:40;;;;;;;1999.90;999.90;;;14.90;94.50;;;;;;5081277;28;20114;-71
2023/08/18 02:33:06;;;;;;;1999.90;999.90;;;14.90;94.50;;;;;;5083260;28;20158;-71
2023/08/18 02:35:32;;;;;;;1999.90;999.90;;;14.80;94.60;;;;;;5085702;28;20032;-71
2023/08/18 02:37:57;;;;;;;1999.90;999.90;;;14.70;94.40;;;;;;5074370;28;20036;-71
2023/08/18 02:40:23;;;;;;;1999.90;999.90;;;14.70;94.50;;;;;;5079956;28;20124;-71
2023/08/18 02:42:48;;;;;;;1999.90;999.90;;;14.70;94.60;;;;;;5073445;28;20036;-71
2023/08/18 02:45:14;;;;;;;1999.90;999.90;;;14.70;94.40;;;;;;5074737;28;20059;-71
2023/08/18 02:47:40;;;;;;;1999.90;999.90;;;14.70;94.40;;;;;;5081649;28;20039;-71
2023/08/18 02:50:06;;;;;;;1999.90;999.90;;;14.70;94.60;;;;;;5080439;28;20524;-71
2023/08/18 02:52:32;;;;;;;1999.90;999.90;;;14.70;94.40;;;;;;5077517;28;20028;-71
2023/08/18 02:54:58;;;;;;;1999.90;999.90;;;14.70;94.60;;;;;;5083156;28;20042;-71
2023/08/18 02:57:24;;;;;;;1999.90;999.90;;;14.60;94.40;;;;;;5082199;28;20056;-71
2023/08/18 02:59:49;;;;;;;1999.90;999.90;;;14.50;94.20;;;;;;5077155;28;20059;-71
2023/08/18 03:02:15;;;;;;;1999.90;999.90;;;14.40;93.80;;;;;;5077057;28;20039;-71
2023/08/18 03:04:40;;;;;;;1999.90;999.90;;;14.40;94.00;;;;;;5078845;28;20066;-71
2023/08/18 03:07:06;;;;;;;1999.90;999.90;;;14.40;94.10;;;;;;5079125;28;20040;-71
2023/08/18 03:09:32;;;;;;;1999.90;999.90;;;14.40;94.10;;;;;;5080566;28;20028;-71
2023/08/18 03:11:57;;;;;;;1999.90;999.90;;;14.40;94.20;;;;;;5069346;28;20040;-71
2023/08/18 03:14:23;;;;;;;1999.90;999.90;;;14.40;94.20;;;;;;5074171;28;20039;-71
2023/08/18 03:16:49;;;;;;;1999.90;999.90;;;14.40;94.00;;;;;;5082788;28;20025;-71
2023/08/18 03:19:14;;;;;;;1999.90;999.90;;;14.40;94.30;;;;;;5078242;28;20843;-71
2023/08/18 03:21:40;;;;;;;1999.90;999.90;;;14.40;94.10;;;;;;5076675;28;20676;-70
2023/08/18 03:24:06;;;;;;;1999.90;999.90;;;14.40;94.00;;;;;;5076667;28;20490;-71
2023/08/18 03:26:31;;;;;;;1999.90;999.90;;;14.30;94.00;;;;;;5080528;28;20528;-71
2023/08/18 03:28:57;;;;;;;1999.90;999.90;;;14.30;94.10;;;;;;5084529;28;20111;-71
2023/08/18 03:31:23;;;;;;;1999.90;999.90;;;14.30;94.20;;;;;;5077271;28;20808;-70
2023/08/18 03:33:49;;;;;;;1999.90;999.90;;;14.20;93.70;;;;;;5078719;28;20429;-71
2023/08/18 03:36:14;;;;;;;1999.90;999.90;;;14.10;93.60;;;;;;5075197;28;20032;-71
2023/08/18 03:38:40;;;;;;;1999.90;999.90;;;14.10;93.50;;;;;;5077982;28;20025;-70
2023/08/18 03:41:07;;;;;;;1999.90;999.90;;;14.00;93.60;;;;;;5080711;28;20028;-71
2023/08/18 03:43:33;;;;;;;1999.90;999.90;;;13.90;93.60;;;;;;5082319;28;20111;-70
2023/08/18 03:46:01;;;;;;;1999.90;999.90;;;14.00;93.40;;;;;;5074861;28;20482;-71
2023/08/18 03:48:27;;;;;;;1999.90;999.90;;;14.00;93.20;;;;;;5077305;28;20519;-72
2023/08/18 03:50:52;;;;;;;1999.90;999.90;;;13.80;93.10;;;;;;5083902;28;20043;-70
2023/08/18 03:53:22;;;;;;;1999.90;999.90;;;13.70;93.20;;;;;;5077989;28;20028;-70
2023/08/18 03:55:52;;;;;;;1999.90;999.90;;;13.50;93.00;;;;;;5087020;28;20032;-71
2023/08/18 03:58:17;;;;;;;1999.90;999.90;;;13.60;93.40;;;;;;5099452;28;20028;-70
2023/08/18 04:00:43;;;;;;;1999.90;999.90;;;13.70;93.20;;;;;;5104001;28;20089;-69
2023/08/18 04:03:09;;;;;;;1999.90;999.90;;;13.70;93.00;;;;;;5100227;28;20061;-70
2023/08/18 04:05:36;;;;;;;1999.90;999.90;;;13.70;93.20;;;;;;5098995;28;20036;-70
2023/08/18 04:08:02;;;;;;;1999.90;999.90;;;13.70;93.40;;;;;;5099612;28;20039;-70
2023/08/18 04:10:27;;;;;;;1999.90;999.90;;;13.70;93.30;;;;;;5103567;28;20040;-70
2023/08/18 04:12:53;;;;;;;1999.90;999.90;;;13.70;93.60;;;;;;5098464;28;20035;-70
2023/08/18 04:15:19;;;;;;;1999.90;999.90;;;13.70;93.70;;;;;;5086495;28;20032;-70
2023/08/18 04:17:44;;;;;;;1999.90;999.90;;;13.70;93.70;;;;;;5080585;28;20377;-71
2023/08/18 04:20:10;;;;;;;1999.90;999.90;;;13.80;93.90;;;;;;5077022;28;20555;-71
2023/08/18 04:22:36;;;;;;;1999.90;999.90;;;13.90;94.00;;;;;;5079285;28;20062;-71
2023/08/18 04:25:02;;;;;;;1999.90;999.90;;;13.90;94.00;;;;;;5083857;28;20503;-71
2023/08/18 04:27:28;;;;;;;1999.90;999.90;;;13.90;94.00;;;;;;5079610;28;20044;-71
2023/08/18 04:29:54;;;;;;;1999.90;999.90;;;13.90;94.30;;;;;;5081064;28;20431;-71
2023/08/18 04:32:19;;;;;;;1999.90;999.90;;;13.90;94.30;;;;;;5081992;28;20735;-71
2023/08/18 04:34:45;;;;;;;1999.90;999.90;;;13.90;94.40;;;;;;5082725;28;20036;-71
2023/08/18 04:37:10;;;;;;;1999.90;999.90;;;13.90;94.30;;;;;;5077831;28;20125;-71
2023/08/18 04:39:36;;;;;;;1999.90;999.90;;;13.80;94.20;;;;;;5076430;28;20813;-70
2023/08/18 04:42:02;;;;;;;1999.90;999.90;;;13.90;94.30;;;;;;5084100;28;20120;-70
2023/08/18 04:44:27;;;;;;;1999.90;999.90;;;14.00;94.10;;;;;;5076037;28;20040;-70
2023/08/18 04:46:53;;;;;;;1999.90;999.90;;;13.90;94.00;;;;;;5080740;28;20032;-70
2023/08/18 04:49:18;;;;;;;1999.90;999.90;;;13.90;93.90;;;;;;5076591;28;20063;-70
2023/08/18 04:51:44;;;;;;;1999.90;999.90;;;13.90;94.00;;;;;;5077655;28;20056;-70
2023/08/18 04:54:11;;;;;;;1999.90;999.90;;;14.00;94.00;;;;;;5078153;28;20039;-70
2023/08/18 04:56:38;;;;;;;1999.90;999.90;;;14.00;93.90;;;;;;5079681;28;20040;-71
2023/08/18 04:59:03;;;;;;;1999.90;999.90;;;13.90;94.00;;;;;;5080870;28;20033;-70
2023/08/18 05:01:29;;;;;;;1999.90;999.90;;;14.00;94.00;;;;;;5082124;28;20711;-70
2023/08/18 05:03:57;;;;;;;1999.90;999.90;;;14.00;94.00;;;;;;5080270;28;20039;-70
2023/08/18 05:06:22;;;;;;;1999.90;999.90;;;14.10;94.00;;;;;;5081921;28;20061;-71
2023/08/18 05:08:48;;;;;;;1999.90;999.90;;;14.00;93.80;;;;;;5079419;28;20640;-73
2023/08/18 05:11:14;;;;;;;1999.90;999.90;;;13.80;93.50;;;;;;5080551;28;20036;-74
2023/08/18 05:13:42;;;;;;;1999.90;999.90;;;13.80;94.00;;;;;;5079607;28;20040;-81
2023/08/18 05:16:08;;;;;;;1999.90;999.90;;;14.00;93.90;;;;;;5083249;28;20024;-79
2023/08/18 05:18:33;;;;;;;1999.90;999.90;;;13.90;93.90;;;;;;5074864;28;20016;-82
2023/08/18 05:21:01;;;;;;;1999.90;999.90;;;14.20;94.00;;;;;;5075320;28;20041;-82
2023/08/18 05:23:28;;;;;;;1999.90;999.90;;;14.20;93.90;;;;;;5081037;28;20411;-82
2023/08/18 05:25:57;;;;;;;1999.90;999.90;;;14.30;93.70;;;;;;5077386;28;20167;-81
2023/08/18 05:28:25;;;;;;;1999.90;999.90;;;14.30;93.50;;;;;;5079925;28;20076;-80
2023/08/18 05:30:54;;;;;;;1999.90;999.90;;;14.40;93.50;;;;;;5076201;28;20402;-81
2023/08/18 05:33:20;;;;;;;1999.90;999.90;;;14.50;93.40;;;;;;5080168;28;20119;-81
2023/08/18 05:35:50;;;;;;;1999.90;999.90;;;14.30;93.50;;;;;;5079976;28;20116;-80
2023/08/18 05:38:15;;;;;;;1999.90;999.90;;;14.40;94.00;;;;;;5078975;28;20024;-82
2023/08/18 05:40:46;;;;;;;1999.90;999.90;;;14.50;94.40;;;;;;5076321;28;20033;-81
2023/08/18 05:43:14;;;;;;;1999.90;999.90;;;14.60;94.60;;;;;;5081588;28;20040;-83
2023/08/18 05:45:40;;;;;;;1999.90;999.90;;;14.70;94.40;;;;;;5077831;28;20359;-85
2023/08/18 05:48:06;;;;;;;1999.90;999.90;;;14.80;94.60;;;;;;5082674;28;20032;-76
2023/08/18 05:50:32;;;;;;;1999.90;999.90;;;14.80;94.30;;;;;;5077664;28;20060;-78
2023/08/18 05:53:00;;;;;;;1999.90;999.90;;;14.80;94.60;;;;;;5074175;28;20556;-79
2023/08/18 05:55:26;;;;;;;1999.90;999.90;;;15.00;94.60;;;;;;5087604;28;20028;-81
2023/08/18 05:57:52;;;;;;;1999.90;999.90;;;15.00;94.50;;;;;;5082197;28;20455;-77
2023/08/18 06:00:18;;;;;;;1999.90;999.90;;;15.30;94.10;;;;;;5084710;28;20052;-79
2023/08/18 06:02:48;;;;;;;1999.90;999.90;;;15.30;93.80;;;;;;5082352;28;20054;-80
2023/08/18 06:05:13;;;;;;;1999.90;999.90;;;15.50;93.90;;;;;;5080322;28;20482;-78
2023/08/18 06:07:42;;;;;;;1999.90;999.90;;;15.50;93.80;;;;;;5081042;28;20402;-79
2023/08/18 06:10:09;;;;;;;1999.90;999.90;;;15.50;93.90;;;;;;5084136;28;20028;-77
2023/08/18 06:12:37;;;;;;;1999.90;999.90;;;15.70;93.60;;;;;;5077883;28;20660;-76
2023/08/18 06:15:04;;;;;;;1999.90;999.90;;;15.90;93.50;;;;;;5074262;28;20024;-79
2023/08/18 06:17:30;;;;;;;1999.90;999.90;;;15.90;93.40;;;;;;5074324;28;20486;-76
2023/08/18 06:19:55;;;;;;;1999.90;999.90;;;16.00;93.30;;;;;;5071996;28;20036;-78
2023/08/18 06:22:21;;;;;;;1999.90;999.90;;;16.00;93.50;;;;;;5073563;28;20036;-76
2023/08/18 06:24:47;;;;;;;1999.90;999.90;;;16.10;92.80;;;;;;5073695;28;20032;-78
2023/08/18 06:27:12;;;;;;;1999.90;999.90;;;16.30;92.80;;;;;;5082718;28;20081;-77
2023/08/18 06:29:38;;;;;;;1999.90;999.90;;;16.50;92.60;;;;;;5078818;28;20032;-76
2023/08/18 06:32:04;;;;;;;1999.90;999.90;;;16.40;92.30;;;;;;5079949;28;20059;-78
2023/08/18 06:34:30;;;;;;;1999.90;999.90;;;16.30;91.90;;;;;;5080509;28;20060;-76
2023/08/18 06:36:56;;;;;;;1999.90;999.90;;;16.50;92.00;;;;;;5083533;28;20043;-78
2023/08/18 06:39:21;;;;;;;1999.90;999.90;;;16.70;92.40;;;;;;5085979;28;20689;-79
2023/08/18 06:41:47;;;;;;;1999.90;999.90;;;16.80;92.10;;;;;;5086640;28;20141;-77
2023/08/18 06:44:13;;;;;;;1999.90;999.90;;;16.70;91.80;;;;;;5078266;28;20723;-76
2023/08/18 06:46:39;;;;;;;1999.90;999.90;;;16.80;91.40;;;;;;5077099;28;20071;-78
2023/08/18 06:49:04;;;;;;;1999.90;999.90;;;16.80;91.00;;;;;;5083006;28;20039;-78
2023/08/18 06:51:30;;;;;;;1999.90;999.90;;;16.90;91.10;;;;;;5076874;28;20039;-76
2023/08/18 06:53:56;;;;;;;1999.90;999.90;;;17.00;91.20;;;;;;5081913;28;20057;-76
2023/08/18 06:56:22;;;;;;;1999.90;999.90;;;17.10;90.80;;;;;;5072758;28;20033;-76
2023/08/18 06:58:47;;;;;;;1999.90;999.90;;;17.00;91.60;;;;;;5073423;28;20081;-75
2023/08/18 07:01:13;;;;;;;1999.90;999.90;;;17.10;91.60;;;;;;5074487;28;20032;-76
2023/08/18 07:03:39;;;;;;;1999.90;999.90;;;17.10;91.50;;;;;;5075280;28;20443;-76
2023/08/18 07:06:04;;;;;;;1999.90;999.90;;;17.30;91.50;;;;;;5082019;28;20061;-75
2023/08/18 07:08:30;;;;;;;1999.90;999.90;;;17.30;91.20;;;;;;5082429;28;20036;-76
2023/08/18 07:10:56;;;;;;;1999.90;999.90;;;17.40;90.60;;;;;;5080035;28;20029;-76
2023/08/18 07:13:22;;;;;;;1999.90;999.90;;;17.50;90.40;;;;;;5082651;28;20107;-78
2023/08/18 07:15:48;;;;;;;1999.90;999.90;;;17.40;90.70;;;;;;5071158;28;20032;-77
2023/08/18 07:18:16;;;;;;;1999.90;999.90;;;17.60;90.70;;;;;;5075120;28;20040;-77
2023/08/18 07:20:48;;;;;;;1999.90;999.90;;;17.80;90.60;;;;;;5079050;28;20375;-76
2023/08/18 07:23:14;;;;;;;1999.90;999.90;;;17.90;90.00;;;;;;5080739;28;20111;-76
2023/08/18 07:25:41;;;;;;;1999.90;999.90;;;17.90;89.10;;;;;;5073646;28;20063;-77
2023/08/18 07:28:07;;;;;;;1999.90;999.90;;;18.20;89.30;;;;;;5081147;28;20048;-77
2023/08/18 07:30:33;;;;;;;1999.90;999.90;;;18.30;88.40;;;;;;5082314;28;20035;-79
2023/08/18 07:32:58;;;;;;;1999.90;999.90;;;18.30;88.10;;;;;;5079881;28;20709;-77
2023/08/18 07:35:25;;;;;;;1999.90;999.90;;;18.50;87.40;;;;;;5083613;28;20394;-77
2023/08/18 07:37:52;;;;;;;1999.90;999.90;;;18.60;86.50;;;;;;5078991;28;20029;-77
2023/08/18 07:40:17;;;;;;;1999.90;999.90;;;18.70;85.10;;;;;;5078127;28;20036;-77
2023/08/18 07:42:46;;;;;;;1999.90;999.90;;;18.90;86.40;;;;;;5079495;28;20034;-76
2023/08/18 07:45:12;;;;;;;1999.90;999.90;;;19.00;86.70;;;;;;5085661;28;20089;-76
2023/08/18 07:47:39;;;;;;;1999.90;999.90;;;18.90;83.90;;;;;;5085023;28;20047;-76
2023/08/18 07:50:09;;;;;;;1999.90;999.90;;;19.10;82.60;;;;;;5081805;28;20474;-77
2023/08/18 07:52:35;;;;;;;1999.90;999.90;;;19.20;84.60;;;;;;5081820;28;20050;-77
2023/08/18 07:55:02;;;;;;;1999.90;999.90;;;19.30;82.40;;;;;;5073651;28;20469;-77
2023/08/18 07:57:28;;;;;;;1999.90;999.90;;;19.60;81.40;;;;;;5082593;28;20036;-76
2023/08/18 07:59:54;;;;;;;1999.90;999.90;;;19.50;84.00;;;;;;5080593;28;20039;-77
2023/08/18 08:02:20;;;;;;;1999.90;999.90;;;19.60;83.80;;;;;;5077947;28;20479;-77
2023/08/18 08:04:46;;;;;;;1999.90;999.90;;;19.90;84.80;;;;;;5078783;28;20050;-76
2023/08/18 08:07:12;;;;;;;1999.90;999.90;;;20.00;80.20;;;;;;5082711;28;20029;-77
2023/08/18 08:09:38;;;;;;;1999.90;999.90;;;20.00;79.90;;;;;;5081093;28;20032;-77
2023/08/18 08:12:04;;;;;;;1999.90;999.90;;;20.20;78.40;;;;;;5088627;28;20033;-75
2023/08/18 08:14:30;;;;;;;1999.90;999.90;;;20.30;77.80;;;;;;5079490;28;20482;-75
2023/08/18 08:16:56;;;;;;;1999.90;999.90;;;20.50;77.50;;;;;;5078980;28;20036;-74
2023/08/18 08:19:21;;;;;;;1999.90;999.90;;;20.70;77.30;;;;;;5082405;28;20029;-74
2023/08/18 08:21:47;;;;;;;1999.90;999.90;;;20.90;80.60;;;;;;5085569;28;20025;-74
2023/08/18 08:24:13;;;;;;;1999.90;999.90;;;20.90;75.80;;;;;;5089628;28;20481;-74
2023/08/18 08:26:39;;;;;;;1999.90;999.90;;;20.90;76.60;;;;;;5081359;28;20047;-74
2023/08/18 08:29:05;;;;;;;1999.90;999.90;;;21.40;75.90;;;;;;5084768;28;20036;-74
2023/08/18 08:31:31;;;;;;;1999.90;999.90;;;21.60;76.60;;;;;;5083307;28;20077;-74
2023/08/18 08:33:57;;;;;;;1999.90;999.90;;;21.90;72.40;;;;;;5063490;28;20425;-74
2023/08/18 08:36:22;;;;;;;1999.90;999.90;;;22.00;73.30;;;;;;5081870;28;20043;-73
2023/08/18 08:38:48;;;;;;;1999.90;999.90;;;22.30;74.60;;;;;;5083511;28;20439;-73
2023/08/18 08:41:14;;;;;;;1999.90;999.90;;;22.30;71.10;;;;;;5079756;28;20027;-73
2023/08/18 08:43:40;;;;;;;1999.90;999.90;;;22.50;74.30;;;;;;5084571;28;20028;-73
2023/08/18 08:46:07;;;;;;;1999.90;999.90;;;22.80;71.80;;;;;;5077775;28;20028;-73
2023/08/18 08:48:40;;;;;;;1999.90;999.90;;;22.90;70.70;;;;;;5080877;28;20040;-74
2023/08/18 08:51:09;;;;;;;1999.90;999.90;;;23.10;70.20;;;;;;5081284;28;20079;-74
2023/08/18 08:53:38;;;;;;;1999.90;999.90;;;23.20;70.40;;;;;;5076964;28;20478;-74
2023/08/18 08:56:07;;;;;;;1999.90;999.90;;;23.30;71.80;;;;;;5087230;28;20029;-74
2023/08/18 08:58:36;;;;;;;1999.90;999.90;;;23.40;71.60;;;;;;5082074;28;20390;-73
2023/08/18 09:01:02;;;;;;;1999.90;999.90;;;23.40;70.90;;;;;;5078793;28;20391;-74
2023/08/18 09:03:28;;;;;;;1999.90;999.90;;;23.70;68.60;;;;;;5074142;28;20064;-74
2023/08/18 09:05:57;;;;;;;1999.90;999.90;;;23.80;69.90;;;;;;5083403;28;20047;-74
2023/08/18 09:08:23;;;;;;;1999.90;999.90;;;24.00;66.00;;;;;;5082110;28;20031;-74
2023/08/18 09:10:49;;;;;;;1999.90;999.90;;;24.20;67.70;;;;;;5082910;28;20448;-74
2023/08/18 09:13:15;;;;;;;1999.90;999.90;;;24.30;64.00;;;;;;5084122;28;20060;-74
2023/08/18 09:15:44;;;;;;;1999.90;999.90;;;24.40;64.80;;;;;;5076594;28;20035;-76
2023/08/18 09:18:14;;;;;;;1999.90;999.90;;;24.40;66.00;;;;;;5081790;28;20028;-76
2023/08/18 09:20:44;;;;;;;;;;;24.60;64.20;;;;;;5075756;28;20685;-75
2023/08/18 09:23:10;;;;;;;1999.90;999.90;;;24.50;64.50;;;;;;5085042;28;19912;-75
2023/08/18 09:25:36;;;;;;;1999.90;999.90;;;24.90;65.40;;;;;;5077048;28;20043;-76
2023/08/18 09:28:05;;;;;;;1999.90;999.90;;;24.60;62.80;;;;;;5081552;28;20044;-75
2023/08/18 09:30:32;;;;;;;1999.90;999.90;;;24.90;66.80;;;;;;5077419;28;20033;-75
2023/08/18 09:33:01;;;;;;;1999.90;999.90;;;25.10;64.90;;;;;;5081305;28;20509;-75
2023/08/18 09:35:33;;;;;;;1999.90;999.90;;;25.30;62.10;;;;;;5074158;28;20237;-76
2023/08/18 09:37:58;;;;;;;1999.90;999.90;;;25.30;66.30;;;;;;5085016;28;20043;-75
2023/08/18 09:40:25;;;;;;;1999.90;999.90;;;25.20;62.20;;;;;;5080721;28;20021;-75
2023/08/18 09:42:51;;;;;;;1999.90;999.90;;;25.10;60.80;;;;;;5080232;28;20025;-75
2023/08/18 09:45:19;;;;;;;1999.90;999.90;;;25.20;62.70;;;;;;5081294;28;20124;-75
2023/08/18 09:47:49;;;;;;;1999.90;999.90;;;25.30;60.80;;;;;;5080599;28;20032;-75
2023/08/18 09:50:16;;;;;;;1999.90;999.90;;;25.80;58.90;;;;;;5081673;28;20036;-75
2023/08/18 09:52:44;;;;;;;1999.90;999.90;;;25.80;60.00;;;;;;5084300;28;20059;-76
2023/08/18 09:55:19;;;;;;;1999.90;999.90;;;25.80;58.40;;;;;;5083109;28;20473;-75
2023/08/18 09:57:57;;;;;;;1999.90;999.90;;;26.10;56.70;;;;;;5074632;28;20038;-75
2023/08/18 10:00:25;;;;;;;1999.90;999.90;;;26.30;60.80;;;;;;5075821;28;20020;-76
2023/08/18 10:02:55;;;;;;;1999.90;999.90;;;26.20;58.20;;;;;;5078786;28;20036;-76
2023/08/18 10:05:21;;;;;;;1999.90;999.90;;;26.60;57.90;;;;;;5078966;28;20029;-76
2023/08/18 10:07:47;;;;;;;1999.90;999.90;;;26.60;56.70;;;;;;5086249;28;20036;-75
2023/08/18 10:10:13;;;;;;;1999.90;999.90;;;26.50;57.50;;;;;;5084291;28;20056;-75
2023/08/18 10:12:41;;;;;;;1999.90;999.90;;;26.70;57.90;;;;;;5084708;28;20494;-75
2023/08/18 10:15:08;;;;;;;1999.90;999.90;;;27.30;54.60;;;;;;5065562;28;20850;-75
2023/08/18 10:17:33;;;;;;;1999.90;999.90;;;27.20;54.20;;;;;;5081986;28;20033;-75
2023/08/18 10:20:00;;;;;;;1999.90;999.90;;;27.30;52.20;;;;;;5081203;28;20037;-75
2023/08/18 10:22:34;;;;;;;1999.90;999.90;;;27.60;52.30;;;;;;5079454;28;20024;-76
2023/08/18 10:24:59;;;;;;;1999.90;999.90;;;27.70;51.90;;;;;;5076434;28;20036;-76
2023/08/18 10:27:28;;;;;;;1999.90;999.90;;;27.40;51.00;;;;;;5082611;28;20040;-74
2023/08/18 10:29:59;;;;;;;1999.90;999.90;;;27.40;52.90;;;;;;5076540;28;20036;-75
2023/08/18 10:32:25;;;;;;;1999.90;999.90;;;27.80;50.60;;;;;;5078352;28;20103;-75
2023/08/18 10:34:51;;;;;;;1999.90;999.90;;;28.00;55.70;;;;;;5075832;28;20109;-76
2023/08/18 10:37:20;;;;;;;1999.90;999.90;;;28.20;53.70;;;;;;5076604;28;20074;-76
2023/08/18 10:39:48;;;;;;;1999.90;999.90;;;27.90;55.10;;;;;;5078771;28;20024;-75
2023/08/18 10:42:15;;;;;;;1999.90;999.90;;;27.90;53.00;;;;;;5077825;28;20055;-75
2023/08/18 10:44:59;;;;;;;1999.90;999.90;;;28.20;53.40;;;;;;5079693;28;20032;-75
2023/08/18 10:47:31;;;;;;;1999.90;999.90;;;28.20;47.20;;;;;;5077835;28;20024;-75
2023/08/18 10:49:58;;;;;;;1999.90;999.90;;;28.30;47.70;;;;;;5081172;28;20055;-75
2023/08/18 10:52:27;;;;;;;1999.90;999.90;;;28.50;50.90;;;;;;5076911;28;20082;-77
2023/08/18 10:54:54;;;;;;;1999.90;999.90;;;28.80;47.50;;;;;;5066900;28;20082;-75
2023/08/18 10:57:20;;;;;;;1999.90;999.90;;;29.00;46.70;;;;;;5083771;28;20278;-75
2023/08/18 10:59:45;;;;;;;1999.90;999.90;;;28.60;47.00;;;;;;5079465;28;20544;-75
2023/08/18 11:02:12;;;;;;;1999.90;999.90;;;29.20;46.60;;;;;;5079104;28;20793;-75
2023/08/18 11:04:38;;;;;;;1999.90;999.90;;;30.00;44.30;;;;;;5078809;28;20702;-75
2023/08/18 11:07:04;;;;;;;1999.90;999.90;;;29.80;45.80;;;;;;5079328;28;20044;-75
2023/08/18 11:09:31;;;;;;;1999.90;999.90;;;30.60;42.60;;;;;;5081349;28;20039;-75
2023/08/18 11:11:57;;;;;;;1999.90;999.90;;;30.70;41.70;;;;;;5088848;28;20086;-76
2023/08/18 11:14:22;;;;;;;1999.90;999.90;;;30.70;39.60;;;;;;5061345;28;20028;-76
2023/08/18 11:16:48;;;;;;;1999.90;999.90;;;31.30;41.50;;;;;;5079847;28;20043;-75
2023/08/18 11:19:14;;;;;;;1999.90;999.90;;;31.40;38.70;;;;;;5077291;28;20028;-75
2023/08/18 11:21:40;;;;;;;1999.90;999.90;;;31.20;41.50;;;;;;5075721;28;20446;-75
2023/08/18 11:24:08;;;;;;;1999.90;999.90;;;31.40;37.90;;;;;;5080247;28;20398;-75
2023/08/18 11:26:36;;;;;;;1999.90;999.90;;;31.60;38.10;;;;;;5076561;28;20118;-75
2023/08/18 11:29:04;;;;;;;1999.90;999.90;;;32.10;38.60;;;;;;5075137;28;20562;-76
2023/08/18 11:31:30;;;;;;;1999.90;999.90;;;32.20;39.40;;;;;;5075724;28;20028;-76
2023/08/18 11:33:57;;;;;;;1999.90;999.90;;;32.40;37.50;;;;;;5079707;28;20412;-76
2023/08/18 11:36:31;;;;;;;1999.90;999.90;;;33.20;33.90;;;;;;5078097;28;20037;-76
2023/08/18 11:39:09;;;;;;;1999.90;999.90;;;33.40;35.10;;;;;;5078270;28;20497;-76
2023/08/18 11:41:44;;;;;;;1999.90;999.90;;;32.90;33.70;;;;;;5078060;28;20028;-76
2023/08/18 11:44:11;;;;;;;1999.90;999.90;;;32.70;36.90;;;;;;5083711;28;20031;-76
2023/08/18 11:46:38;;;;;;;1999.90;999.90;;;33.50;35.80;;;;;;5081962;28;20029;-76
2023/08/18 11:49:16;;;;;;;1999.90;999.90;;;33.30;37.10;;;;;;5078158;28;20060;-76
2023/08/18 11:52:05;;;;;;;1999.90;999.90;;;33.00;34.50;;;;;;5075451;28;20058;-76
2023/08/18 11:54:38;;;;;;;1999.90;999.90;;;33.10;33.90;;;;;;5076948;28;20290;-76
2023/08/18 11:57:06;;;;;;;1999.90;999.90;;;33.60;34.20;;;;;;5082814;28;20028;-76